Southwest Florida International Airport
KRSW : now visible

Airfield :











YOU CAN JOIN US ON...

 
LOGIN :

Register | Disclaimer

   EN    FR    IT 

 









Legend :    VFR   Marginal VFR   IFR   Intensive IFR   Very Intensive IFR
Visi :
Ceiling :
>= 8 km
>= 3000ft
5 to 8 km
1000 to 3000 ft
1500m to 5 km
500 to 1000 ft
800 to 1500m
200 to 500 ft
< 800m
< 200 ft
Symbols :   Thunderstorms  Fog  Heavy snow  Heavy precipitations  Wind > 20 kt






- Airport Elevation : 30 ft
- IATA code : RSW


KRSW - Southwest Florida International

CURRENT METAR :
  • 230801Z AUTO 00000KT 1/2SM FG VV003 16/15 A3002 RMK AO2 T01560150

EXPIRED METARs :
  • 230743Z AUTO 22003KT 1/4SM FG VV002 16/15 A3002 RMK AO2 T01560150
  • 230733Z AUTO 00000KT 1/2SM FG VV003 16/15 A3003 RMK AO2 T01560150
  • 230717Z AUTO 00000KT 1/4SM FG VV004 16/14 A3002 RMK AO2 T01560144
  • 230707Z AUTO 00000KT 1/2SM FG VV006 16/14 A3003 RMK AO2 T01560144
  • 230653Z AUTO 00000KT 1/2SM FG CLR 16/15 A3003 RMK AO2 SLP165 T01560150
  • 230642Z AUTO 00000KT 1/4SM FG CLR 16/15 A3003 RMK AO2 T01560150
  • 230631Z AUTO 00000KT 1/2SM FG CLR 16/15 A3003 RMK AO2 T01560150
  • 230553Z AUTO 24003KT 1/2SM FG CLR 16/15 A3003 RMK AO2 SLP167 T01560150 10189 20150 58005
  • 230543Z AUTO 24003KT 3/4SM BR CLR 16/15 A3003 RMK AO2 T01610150
  • 230533Z AUTO 00000KT 1 3/4SM BR CLR 16/15 A3003 RMK AO2 T01560150
  • 230518Z AUTO 00000KT 1SM BR CLR 16/15 A3004 RMK AO2 T01560150

TAF KRSW
Valid from the 23 at 06:00 until the 24 at 06:00 UTC


230524Z 2306/2406 24005KT P6SM SCT100
TEMPO 2306/2309 1/2SM FG BKN005
FM230900 VRB03KT 3SM BR SCT006 BKN015
TEMPO 2309/2313 1/2SM FG BKN005
FM231500 27006KT P6SM FEW020 SCT100 BKN250
KZMA FIR / North America



MET'MAP, your aeronautical weather chart ! - Copyright ORBIFLY December 2007 - Disclaimer

ORBIFLY MET'MAP TEAM :

Programming & Development : Alexandra Zaïnal
Concept & original design : Baudouin d'Aumeries
Assistance for programming : Marc-Olivier Méhu
Technical & hardware support : Manuel Goepfert

Contact : metmap@orbifly.com




SOURCES & CREDITS :

   NOAA       Earth
Advisory